Time;durP1;ratioP1;P1;durP2;ratioP2;P2;SDS_P1;SDS_P2;PMS_P1;PMS_P2;Temp;Humidity;BMP_temperature;BMP_pressure;BME280_temperature;BME280_humidity;BME280_pressure;Samples;Min_cycle;Max_cycle;Signal;HPM_P1;HPM_P2
2021/08/05 00:02:12;;;;;;;35.85;32.47;;;17.70;84.30;;;;;;5094684;28;20026;-87
2021/08/05 00:04:38;;;;;;;37.35;33.85;;;17.60;84.50;;;;;;5088462;28;20032;-78
2021/08/05 00:07:05;;;;;;;35.55;32.25;;;17.60;84.70;;;;;;5080624;28;20032;-79
2021/08/05 00:09:31;;;;;;;37.65;33.90;;;17.60;84.80;;;;;;5100718;28;20570;-79
2021/08/05 00:11:56;;;;;;;37.42;33.80;;;17.60;85.00;;;;;;5085917;28;20051;-78
2021/08/05 00:14:22;;;;;;;36.55;33.13;;;17.60;84.90;;;;;;5091648;28;20035;-83
2021/08/05 00:16:48;;;;;;;33.78;30.67;;;17.60;85.00;;;;;;5103448;28;20471;-79
2021/08/05 00:19:14;;;;;;;33.67;30.40;;;17.60;84.70;;;;;;5102518;28;20069;-79
2021/08/05 00:21:39;;;;;;;33.40;30.33;;;17.60;84.50;;;;;;5081431;28;20028;-78
2021/08/05 00:24:05;;;;;;;31.17;28.17;;;17.60;84.40;;;;;;5109595;28;20035;-80
2021/08/05 00:26:31;;;;;;;31.65;28.30;;;17.60;84.20;;;;;;5103004;28;20046;-79
2021/08/05 00:28:56;;;;;;;28.85;26.05;;;17.60;84.00;;;;;;5101251;28;20089;-79
2021/08/05 00:31:22;;;;;;;28.13;25.48;;;17.60;83.80;;;;;;5076743;28;20015;-78
2021/08/05 00:33:48;;;;;;;29.23;26.33;;;17.60;83.80;;;;;;5102704;28;20047;-78
2021/08/05 00:36:13;;;;;;;29.52;26.88;;;17.60;84.00;;;;;;5111109;28;20343;-86
2021/08/05 00:38:39;;;;;;;29.73;26.83;;;17.60;84.10;;;;;;5101745;28;20035;-78
2021/08/05 00:41:05;;;;;;;29.70;26.90;;;17.60;84.20;;;;;;5090699;28;20107;-78
2021/08/05 00:43:34;;;;;;;30.13;27.52;;;17.50;84.30;;;;;;5100603;28;20032;-79
2021/08/05 00:46:00;;;;;;;30.60;27.73;;;17.50;84.40;;;;;;5083587;28;20463;-78
2021/08/05 00:48:25;;;;;;;29.75;26.95;;;17.50;84.70;;;;;;5091985;28;20108;-78
2021/08/05 00:50:51;;;;;;;31.90;28.88;;;17.40;84.90;;;;;;5089923;28;20118;-78
2021/08/05 00:53:17;;;;;;;34.50;31.20;;;17.40;85.10;;;;;;5104733;28;20016;-82
2021/08/05 00:55:45;;;;;;;33.47;30.13;;;17.40;85.20;;;;;;5099353;28;20084;-79
2021/08/05 00:58:11;;;;;;;35.20;31.77;;;17.30;85.40;;;;;;5102436;28;20122;-79
2021/08/05 01:00:38;;;;;;;35.40;32.10;;;17.20;85.60;;;;;;5104990;28;20040;-79
2021/08/05 01:03:19;;;;;;;35.70;32.20;;;17.30;85.80;;;;;;5112197;28;20098;-79
2021/08/05 01:06:00;;;;;;;35.67;32.15;;;17.30;85.70;;;;;;5110505;28;20019;-79
2021/08/05 01:08:26;;;;;;;35.38;31.83;;;17.40;85.80;;;;;;5111531;28;20023;-78
2021/08/05 01:11:04;;;;;;;36.60;32.88;;;17.30;85.70;;;;;;5093444;28;20077;-79
2021/08/05 01:13:45;;;;;;;36.90;33.28;;;17.30;85.90;;;;;;5110639;28;20034;-80
2021/08/05 01:16:14;;;;;;;35.92;32.63;;;17.30;86.00;;;;;;5093839;28;20016;-79
2021/08/05 01:18:41;;;;;;;35.83;32.22;;;17.40;86.00;;;;;;5110723;28;20024;-79
2021/08/05 01:21:15;;;;;;;35.97;32.55;;;17.30;86.00;;;;;;5094040;28;20024;-78
2021/08/05 01:23:46;;;;;;;37.05;33.63;;;17.30;86.10;;;;;;5093539;28;20032;-79
2021/08/05 01:26:37;;;;;;;34.83;31.63;;;17.30;86.10;;;;;;5093921;28;20017;-78
2021/08/05 01:29:04;;;;;;;35.22;32.03;;;17.30;86.30;;;;;;5093218;28;20044;-78
2021/08/05 01:31:33;;;;;;;35.08;31.63;;;17.30;86.30;;;;;;5093237;28;20051;-78
2021/08/05 01:33:59;;;;;;;35.50;32.20;;;17.30;86.10;;;;;;5094759;28;20067;-78
2021/08/05 01:36:26;;;;;;;35.95;32.42;;;17.40;85.90;;;;;;5112303;28;20058;-78
2021/08/05 01:38:53;;;;;;;34.92;31.70;;;17.40;85.70;;;;;;5113928;28;20023;-78
2021/08/05 01:41:20;;;;;;;34.60;31.33;;;17.40;85.70;;;;;;5114212;28;20055;-81
2021/08/05 01:43:47;;;;;;;36.15;32.83;;;17.40;85.60;;;;;;5114710;28;20073;-78
2021/08/05 01:46:13;;;;;;;35.30;31.77;;;17.40;85.60;;;;;;5113962;28;20028;-78
2021/08/05 01:48:40;;;;;;;36.05;32.85;;;17.40;85.70;;;;;;5096411;28;20048;-78
2021/08/05 01:51:06;;;;;;;33.88;30.58;;;17.30;85.80;;;;;;5096706;28;20054;-78
2021/08/05 01:53:33;;;;;;;35.20;32.00;;;17.30;86.10;;;;;;5113300;28;20036;-78
2021/08/05 01:55:59;;;;;;;37.95;34.35;;;17.20;86.20;;;;;;5113618;28;20098;-78
2021/08/05 01:58:25;;;;;;;36.88;33.47;;;17.20;86.30;;;;;;5096156;28;20039;-83
2021/08/05 02:00:51;;;;;;;37.90;34.38;;;17.10;86.40;;;;;;5113604;28;20031;-78
2021/08/05 02:03:16;;;;;;;38.70;35.00;;;17.10;86.60;;;;;;5093132;28;20032;-78
2021/08/05 02:06:21;;;;;;;39.47;35.58;;;17.10;86.80;;;;;;5102032;28;20588;-78
2021/08/05 02:09:14;;;;;;;35.55;32.25;;;17.10;87.20;;;;;;5014346;28;20025;-79
2021/08/05 02:11:45;;;;;;;36.47;32.88;;;17.00;86.90;;;;;;5031105;28;20033;-78
2021/08/05 02:14:15;;;;;;;37.58;34.08;;;17.00;86.80;;;;;;5074340;28;20048;-79
2021/08/05 02:16:45;;;;;;;35.83;32.63;;;17.00;86.80;;;;;;5111150;28;20070;-78
2021/08/05 02:19:12;;;;;;;36.03;32.72;;;17.00;86.70;;;;;;5114577;28;20539;-79
2021/08/05 02:21:41;;;;;;;36.88;33.38;;;17.00;86.70;;;;;;5112197;28;20386;-79
2021/08/05 02:24:08;;;;;;;37.25;33.67;;;17.00;86.70;;;;;;5115056;28;20023;-79
2021/08/05 02:26:34;;;;;;;35.40;32.10;;;17.00;86.90;;;;;;5112950;28;20470;-79
2021/08/05 02:29:01;;;;;;;33.65;30.42;;;17.00;86.90;;;;;;5113118;28;20039;-79
2021/08/05 02:31:27;;;;;;;34.53;31.33;;;16.90;86.90;;;;;;5113372;28;20023;-80
2021/08/05 02:33:57;;;;;;;36.72;33.38;;;16.90;87.00;;;;;;5113372;28;20044;-79
2021/08/05 02:36:22;;;;;;;35.38;32.17;;;16.90;87.00;;;;;;5112642;28;20467;-79
2021/08/05 02:38:49;;;;;;;34.20;31.08;;;16.80;87.10;;;;;;5095752;28;20084;-79
2021/08/05 02:41:15;;;;;;;33.72;30.42;;;16.80;87.30;;;;;;5096657;28;20042;-79
2021/08/05 02:43:42;;;;;;;31.88;28.98;;;16.80;87.30;;;;;;5095720;28;20039;-79
2021/08/05 02:46:08;;;;;;;31.02;28.13;;;16.80;87.40;;;;;;5112587;28;20031;-78
2021/08/05 02:48:35;;;;;;;30.60;27.90;;;16.80;87.30;;;;;;5095526;28;20048;-79
2021/08/05 02:51:01;;;;;;;28.45;25.98;;;16.80;87.30;;;;;;5096334;28;20059;-78
2021/08/05 02:53:28;;;;;;;29.65;26.77;;;16.90;87.10;;;;;;5075699;28;20464;-77
2021/08/05 02:55:55;;;;;;;28.48;25.60;;;16.90;86.90;;;;;;5100858;28;20076;-79
2021/08/05 02:58:21;;;;;;;27.13;24.63;;;16.90;86.80;;;;;;5095690;28;20032;-78
2021/08/05 03:00:47;;;;;;;28.08;25.48;;;17.00;86.70;;;;;;5112527;28;20030;-79
2021/08/05 03:03:13;;;;;;;28.83;26.23;;;17.00;86.50;;;;;;5112671;28;20019;-78
2021/08/05 03:05:40;;;;;;;27.55;25.00;;;17.10;86.40;;;;;;5091666;28;20020;-78
2021/08/05 03:08:07;;;;;;;27.80;25.00;;;17.10;86.30;;;;;;5086565;28;20027;-78
2021/08/05 03:10:33;;;;;;;28.75;26.13;;;17.10;86.10;;;;;;5112673;28;20031;-83
2021/08/05 03:12:59;;;;;;;27.15;24.65;;;17.10;86.10;;;;;;5111946;28;20027;-79
2021/08/05 03:15:24;;;;;;;27.70;25.17;;;17.10;86.00;;;;;;5112748;28;20502;-78
2021/08/05 03:17:51;;;;;;;27.52;24.90;;;17.10;86.00;;;;;;5095766;28;20398;-78
2021/08/05 03:20:17;;;;;;;27.83;25.27;;;17.10;85.90;;;;;;5115366;28;20023;-78
2021/08/05 03:22:46;;;;;;;27.63;25.02;;;17.10;85.90;;;;;;5115030;28;20034;-78
2021/08/05 03:25:12;;;;;;;28.15;25.45;;;17.10;86.00;;;;;;5099687;28;20215;-78
2021/08/05 03:27:41;;;;;;;28.17;25.63;;;17.10;86.00;;;;;;5117326;28;20028;-84
2021/08/05 03:30:07;;;;;;;28.77;26.27;;;17.00;86.10;;;;;;5113893;28;20030;-78
2021/08/05 03:32:33;;;;;;;28.65;26.05;;;16.90;86.30;;;;;;5095253;28;20031;-78
2021/08/05 03:34:58;;;;;;;28.60;25.98;;;16.80;86.60;;;;;;5111555;28;20390;-78
2021/08/05 03:37:25;;;;;;;27.40;24.90;;;16.70;86.80;;;;;;5113556;28;20031;-82
2021/08/05 03:39:50;;;;;;;28.40;25.70;;;16.70;87.00;;;;;;5111857;28;20418;-79
2021/08/05 03:42:16;;;;;;;28.00;25.42;;;16.70;87.00;;;;;;5113697;28;20194;-79
2021/08/05 03:44:42;;;;;;;27.60;24.90;;;16.70;86.80;;;;;;5113165;28;20391;-78
2021/08/05 03:47:07;;;;;;;27.48;25.15;;;16.80;86.80;;;;;;5094887;28;20055;-79
2021/08/05 03:49:33;;;;;;;27.58;25.08;;;16.80;86.80;;;;;;5111757;28;20470;-79
2021/08/05 03:51:59;;;;;;;28.38;25.65;;;16.80;86.80;;;;;;5111351;28;20020;-79
2021/08/05 03:54:24;;;;;;;28.05;25.50;;;16.80;86.80;;;;;;5111167;28;20044;-78
2021/08/05 03:56:50;;;;;;;26.27;23.98;;;16.80;86.80;;;;;;5111902;28;20104;-79
2021/08/05 03:59:16;;;;;;;26.25;23.85;;;16.80;86.90;;;;;;5111088;28;20083;-79
2021/08/05 04:01:41;;;;;;;25.73;23.33;;;16.80;87.00;;;;;;5094028;28;20451;-84
2021/08/05 04:04:07;;;;;;;26.85;24.25;;;16.80;87.00;;;;;;5113078;28;20031;-79
2021/08/05 04:06:33;;;;;;;27.88;25.30;;;16.80;87.10;;;;;;5112947;28;20116;-79
2021/08/05 04:08:58;;;;;;;26.52;24.13;;;16.80;87.10;;;;;;5111198;28;20406;-79
2021/08/05 04:11:24;;;;;;;27.33;24.83;;;16.80;87.20;;;;;;5113532;28;20447;-79
2021/08/05 04:13:49;;;;;;;27.23;24.83;;;16.70;87.20;;;;;;5112264;28;20535;-79
2021/08/05 04:16:15;;;;;;;28.42;25.83;;;16.80;87.30;;;;;;5077675;28;20024;-79
2021/08/05 04:18:41;;;;;;;30.05;27.17;;;16.80;87.30;;;;;;5111650;28;20469;-84
2021/08/05 04:21:06;;;;;;;31.52;28.60;;;16.80;87.30;;;;;;5110872;28;20378;-78
2021/08/05 04:23:32;;;;;;;37.28;33.58;;;16.80;87.20;;;;;;5093642;28;20028;-78
2021/08/05 04:25:58;;;;;;;33.72;30.60;;;16.80;87.30;;;;;;5110298;28;20028;-78
2021/08/05 04:28:23;;;;;;;33.58;30.27;;;16.80;87.50;;;;;;5110273;28;20027;-80
2021/08/05 04:30:53;;;;;;;35.90;32.53;;;16.70;87.60;;;;;;5076479;28;20028;-78
2021/08/05 04:33:19;;;;;;;32.63;29.55;;;16.80;87.70;;;;;;5110700;28;20051;-78
2021/08/05 04:35:45;;;;;;;32.45;29.35;;;16.80;87.70;;;;;;5110828;28;20051;-84
2021/08/05 04:38:12;;;;;;;32.45;29.35;;;16.80;87.70;;;;;;5111383;28;20020;-78
2021/08/05 04:40:38;;;;;;;32.83;29.77;;;16.90;87.60;;;;;;5110706;28;20016;-79
2021/08/05 04:43:03;;;;;;;31.80;28.80;;;16.90;88.00;;;;;;5110461;28;20070;-79
2021/08/05 04:45:29;;;;;;;32.75;29.65;;;16.90;87.50;;;;;;5097316;28;20024;-79
2021/08/05 04:47:54;;;;;;;32.50;29.30;;;17.00;87.50;;;;;;5097809;28;20059;-79
2021/08/05 04:50:21;;;;;;;33.58;30.30;;;17.00;87.50;;;;;;5115197;28;20171;-79
2021/08/05 04:52:47;;;;;;;35.10;31.75;;;17.00;87.50;;;;;;5098309;28;20028;-80
2021/08/05 04:55:13;;;;;;;36.30;32.83;;;17.10;87.40;;;;;;5098064;28;20039;-78
2021/08/05 04:57:50;;;;;;;36.50;32.83;;;17.10;87.40;;;;;;5115020;28;20031;-79
2021/08/05 05:00:30;;;;;;;34.55;31.25;;;17.10;87.30;;;;;;5115341;28;20027;-79
2021/08/05 05:02:57;;;;;;;35.20;31.80;;;17.10;87.40;;;;;;5116316;28;20088;-79
2021/08/05 05:05:23;;;;;;;34.88;31.35;;;17.10;87.50;;;;;;5115584;28;20383;-78
2021/08/05 05:07:49;;;;;;;33.65;30.45;;;17.00;87.60;;;;;;5115160;28;20058;-84
2021/08/05 05:10:16;;;;;;;34.53;31.35;;;17.00;87.70;;;;;;5098131;28;20024;-78
2021/08/05 05:12:43;;;;;;;32.10;29.10;;;17.00;87.70;;;;;;5099060;28;20494;-77
2021/08/05 05:15:11;;;;;;;36.78;33.15;;;17.00;87.70;;;;;;5114965;28;20101;-78
2021/08/05 05:17:38;;;;;;;34.47;31.15;;;17.10;87.50;;;;;;5115963;28;20024;-78
2021/08/05 05:20:05;;;;;;;35.80;32.35;;;17.20;87.30;;;;;;5115385;28;20031;-78
2021/08/05 05:22:31;;;;;;;34.10;31.15;;;17.30;86.90;;;;;;5117643;28;20055;-78
2021/08/05 05:24:59;;;;;;;36.35;32.90;;;17.50;86.60;;;;;;5116742;28;20038;-78
2021/08/05 05:27:25;;;;;;;34.67;31.38;;;18.00;86.20;;;;;;5101072;28;20046;-77
2021/08/05 05:29:51;;;;;;;35.65;32.47;;;18.80;84.60;;;;;;5108639;28;20131;-86
2021/08/05 05:32:17;;;;;;;32.35;29.25;;;19.50;82.10;;;;;;5128000;28;20059;-79
2021/08/05 05:34:43;;;;;;;30.48;27.70;;;20.20;80.00;;;;;;5127704;28;20035;-78
2021/08/05 05:37:09;;;;;;;28.27;25.77;;;21.00;77.80;;;;;;5108523;28;20035;-76
2021/08/05 05:39:34;;;;;;;27.27;24.77;;;21.70;75.30;;;;;;5124418;28;20059;-77
2021/08/05 05:42:01;;;;;;;26.33;23.75;;;22.30;73.60;;;;;;5129954;28;20027;-79
2021/08/05 05:44:27;;;;;;;25.55;22.98;;;22.80;71.90;;;;;;5123399;28;20055;-79
2021/08/05 05:46:52;;;;;;;24.80;22.50;;;23.30;70.30;;;;;;5100548;28;20351;-82
2021/08/05 05:49:18;;;;;;;25.50;23.23;;;23.10;69.80;;;;;;5085088;28;20024;-79
2021/08/05 05:51:44;;;;;;;29.20;26.50;;;22.80;70.00;;;;;;5116846;28;20027;-78
2021/08/05 05:54:10;;;;;;;30.33;27.38;;;22.20;70.40;;;;;;5116972;28;20035;-78
2021/08/05 05:56:36;;;;;;;30.40;27.60;;;21.70;71.80;;;;;;5120539;28;20051;-79
2021/08/05 05:59:03;;;;;;;33.45;30.42;;;21.10;73.10;;;;;;5121607;28;20119;-79
2021/08/05 06:01:28;;;;;;;35.17;31.73;;;20.50;74.70;;;;;;5119003;28;20558;-78
2021/08/05 06:03:54;;;;;;;35.42;32.03;;;20.10;76.20;;;;;;5118401;28;20060;-80
2021/08/05 06:06:20;;;;;;;38.53;35.03;;;19.80;77.00;;;;;;5082096;28;20055;-77
2021/08/05 06:08:45;;;;;;;36.92;33.50;;;19.60;77.60;;;;;;5117781;28;20028;-78
2021/08/05 06:11:11;;;;;;;37.70;34.13;;;19.30;78.30;;;;;;5100615;28;20115;-78
2021/08/05 06:13:37;;;;;;;38.13;34.47;;;19.30;79.10;;;;;;5097970;28;20023;-77
2021/08/05 06:16:03;;;;;;;36.00;32.53;;;19.20;79.40;;;;;;5097994;28;20031;-78
2021/08/05 06:18:28;;;;;;;37.47;33.95;;;19.30;79.50;;;;;;5114824;28;20114;-79
2021/08/05 06:20:54;;;;;;;38.42;34.58;;;19.30;79.60;;;;;;5114566;28;20472;-78
2021/08/05 06:23:21;;;;;;;39.80;35.80;;;19.30;79.60;;;;;;5117143;28;20035;-77
2021/08/05 06:25:47;;;;;;;40.65;36.58;;;19.30;79.40;;;;;;5095134;28;20028;-80
2021/08/05 06:28:13;;;;;;;41.20;37.03;;;19.30;79.30;;;;;;5080561;28;20047;-79
2021/08/05 06:30:40;;;;;;;39.28;35.47;;;19.50;79.10;;;;;;5097935;28;20452;-78
2021/08/05 06:33:05;;;;;;;40.58;36.83;;;19.50;78.80;;;;;;5119678;28;20139;-78
2021/08/05 06:35:31;;;;;;;40.30;36.08;;;19.60;78.80;;;;;;5119950;28;20463;-78
2021/08/05 06:37:57;;;;;;;40.35;36.33;;;19.60;78.80;;;;;;5094377;28;20035;-79
2021/08/05 06:40:22;;;;;;;43.63;39.22;;;19.70;78.70;;;;;;5116454;28;20059;-79
2021/08/05 06:42:48;;;;;;;46.88;42.33;;;19.70;78.60;;;;;;5080481;28;20032;-79
2021/08/05 06:45:14;;;;;;;45.58;41.10;;;19.60;78.80;;;;;;5081705;28;20040;-80
2021/08/05 06:47:45;;;;;;;41.78;37.53;;;19.60;78.90;;;;;;5113447;28;20088;-79
2021/08/05 06:50:11;;;;;;;43.05;38.85;;;19.70;79.20;;;;;;5115982;28;20232;-77
2021/08/05 06:52:37;;;;;;;50.58;45.15;;;19.90;79.80;;;;;;5115149;28;20087;-80
2021/08/05 06:55:03;;;;;;;44.47;40.00;;;20.00;79.00;;;;;;5132060;27;20076;-81
2021/08/05 06:57:30;;;;;;;44.53;40.53;;;20.20;78.70;;;;;;5079898;28;20508;-80
2021/08/05 06:59:55;;;;;;;44.20;40.00;;;20.40;78.40;;;;;;5100915;28;20054;-80
2021/08/05 07:02:21;;;;;;;42.35;38.05;;;21.00;77.20;;;;;;5089234;28;20040;-78
2021/08/05 07:04:47;;;;;;;41.80;37.55;;;21.60;76.20;;;;;;5116497;28;20031;-83
2021/08/05 07:07:12;;;;;;;43.78;39.83;;;22.40;74.00;;;;;;5113981;28;20440;-79
2021/08/05 07:09:38;;;;;;;39.80;36.10;;;23.10;71.90;;;;;;5115126;28;20035;-79
2021/08/05 07:12:04;;;;;;;36.65;33.15;;;24.00;70.70;;;;;;5115698;28;20070;-79
2021/08/05 07:14:30;;;;;;;34.17;30.70;;;25.10;68.50;;;;;;5114403;28;20428;-82
2021/08/05 07:16:55;;;;;;;29.80;27.20;;;26.00;66.10;;;;;;5116274;28;20039;-80
2021/08/05 07:19:22;;;;;;;30.30;27.52;;;26.50;64.20;;;;;;5073129;28;20032;-83
2021/08/05 07:21:47;;;;;;;29.73;27.02;;;27.00;62.20;;;;;;5110838;28;20059;-80
2021/08/05 07:24:13;;;;;;;31.75;28.85;;;26.60;61.70;;;;;;5107006;28;20076;-78
2021/08/05 07:26:42;;;;;;;32.92;29.92;;;25.90;62.50;;;;;;5110820;28;20035;-79
2021/08/05 07:29:08;;;;;;;33.58;30.55;;;25.20;63.10;;;;;;5095297;28;20467;-82
2021/08/05 07:31:33;;;;;;;32.92;29.63;;;24.60;64.20;;;;;;5095070;28;20027;-78
2021/08/05 07:33:59;;;;;;;36.03;32.70;;;24.30;65.40;;;;;;5111564;28;20046;-79
2021/08/05 07:36:26;;;;;;;39.35;35.58;;;23.90;65.50;;;;;;5108731;28;20124;-79
2021/08/05 07:38:52;;;;;;;39.97;36.10;;;23.50;66.10;;;;;;5104555;28;20601;-79
2021/08/05 07:41:18;;;;;;;39.75;36.05;;;23.20;66.70;;;;;;5106690;28;20417;-80
2021/08/05 07:43:44;;;;;;;41.30;37.35;;;23.20;67.50;;;;;;5087829;28;20035;-80
2021/08/05 07:46:10;;;;;;;41.40;37.35;;;23.30;68.40;;;;;;5109216;28;20108;-80
2021/08/05 07:48:38;;;;;;;37.80;34.30;;;23.60;68.50;;;;;;5108938;28;20100;-79
2021/08/05 07:51:03;;;;;;;39.40;35.75;;;24.00;67.40;;;;;;5092528;28;20043;-79
2021/08/05 07:53:29;;;;;;;39.38;35.42;;;24.20;66.60;;;;;;5108284;28;20058;-81
2021/08/05 07:55:55;;;;;;;35.50;32.20;;;24.70;66.20;;;;;;5092777;28;20471;-80
2021/08/05 07:58:20;;;;;;;37.72;34.33;;;25.10;65.70;;;;;;5085190;28;20405;-80
2021/08/05 08:00:46;;;;;;;42.60;38.88;;;25.40;64.90;;;;;;5081120;28;20039;-81
2021/08/05 08:03:13;;;;;;;35.92;32.65;;;25.70;62.70;;;;;;5107369;28;20015;-82
2021/08/05 08:05:40;;;;;;;39.15;35.38;;;25.80;62.30;;;;;;5072100;28;20062;-80
2021/08/05 08:08:07;;;;;;;35.00;31.80;;;26.20;61.20;;;;;;5103500;28;20728;-78
2021/08/05 08:10:33;;;;;;;36.03;32.90;;;26.10;61.00;;;;;;5108602;28;20051;-80
2021/08/05 08:12:58;;;;;;;36.20;32.80;;;26.20;61.00;;;;;;5113433;28;20483;-79
2021/08/05 08:15:25;;;;;;;35.47;32.05;;;25.90;61.30;;;;;;5122831;28;20181;-80
2021/08/05 08:17:52;;;;;;;35.13;31.92;;;25.50;62.80;;;;;;5111122;28;20027;-80
2021/08/05 08:20:18;;;;;;;33.72;30.73;;;25.20;63.10;;;;;;5091436;28;20463;-81
2021/08/05 08:22:44;;;;;;;35.90;32.50;;;24.90;63.60;;;;;;5092132;28;20082;-80
2021/08/05 08:25:10;;;;;;;37.63;33.78;;;24.70;64.10;;;;;;5073478;28;20036;-80
2021/08/05 08:27:36;;;;;;;39.45;35.35;;;24.30;64.60;;;;;;5104234;28;20089;-80
2021/08/05 08:30:02;;;;;;;37.35;33.95;;;24.20;65.10;;;;;;5092427;28;20545;-81
2021/08/05 08:32:28;;;;;;;39.97;36.38;;;24.30;65.30;;;;;;5104792;28;20047;-83
2021/08/05 08:34:54;;;;;;;38.67;34.90;;;24.50;65.50;;;;;;5107717;28;20027;-81
2021/08/05 08:37:20;;;;;;;42.00;38.00;;;24.70;64.70;;;;;;5106835;28;20382;-80
2021/08/05 08:39:45;;;;;;;40.75;36.70;;;24.70;64.00;;;;;;5087879;28;20039;-81
2021/08/05 08:42:13;;;;;;;42.55;38.45;;;24.60;64.00;;;;;;5090222;28;20032;-85
2021/08/05 08:44:39;;;;;;;41.47;37.38;;;24.50;64.60;;;;;;5087115;28;20115;-80
2021/08/05 08:47:07;;;;;;;38.60;34.88;;;24.30;64.80;;;;;;5107290;28;21110;-80
2021/08/05 08:49:33;;;;;;;39.30;35.70;;;24.10;65.40;;;;;;5091917;28;20117;-80
2021/08/05 08:51:59;;;;;;;38.67;34.90;;;24.20;66.10;;;;;;5105469;28;20032;-80
2021/08/05 08:54:24;;;;;;;40.40;36.53;;;24.20;66.30;;;;;;5078110;28;20110;-81
2021/08/05 08:56:53;;;;;;;40.80;36.78;;;24.20;65.00;;;;;;5099816;28;20043;-80
2021/08/05 08:59:20;;;;;;;33.20;30.20;;;24.00;65.60;;;;;;5106627;28;20019;-84
2021/08/05 09:01:45;;;;;;;39.13;35.38;;;24.00;66.30;;;;;;5071301;28;20020;-80
2021/08/05 09:04:12;;;;;;;41.63;37.30;;;24.30;65.90;;;;;;5102336;28;20073;-79
2021/08/05 09:06:38;;;;;;;38.55;34.75;;;24.40;65.40;;;;;;5103972;28;20034;-80
2021/08/05 09:09:07;;;;;;;38.75;35.13;;;24.40;66.10;;;;;;5102802;28;20024;-80
2021/08/05 09:11:33;;;;;;;40.13;36.03;;;24.30;65.60;;;;;;5095491;28;20028;-80
2021/08/05 09:13:59;;;;;;;37.58;34.08;;;24.50;66.30;;;;;;5073817;28;20028;-80
2021/08/05 09:16:28;;;;;;;40.17;35.88;;;24.70;65.50;;;;;;5108246;28;20024;-80
2021/08/05 09:19:06;;;;;;;36.08;32.47;;;24.90;64.20;;;;;;5104825;28;20021;-78
2021/08/05 09:21:32;;;;;;;32.80;29.70;;;25.10;64.00;;;;;;5092708;28;20013;-78
2021/08/05 09:24:05;;;;;;;33.50;30.30;;;25.50;63.60;;;;;;5109626;28;20479;-78
2021/08/05 09:26:39;;;;;;;35.28;31.67;;;25.90;62.10;;;;;;5105959;28;20050;-79
2021/08/05 09:29:09;;;;;;;35.50;31.77;;;26.30;61.10;;;;;;5091184;28;20090;-81
2021/08/05 09:31:38;;;;;;;36.85;33.40;;;26.60;60.80;;;;;;5110816;28;20110;-79
2021/08/05 09:34:08;;;;;;;34.65;31.33;;;26.90;59.90;;;;;;5113514;28;20028;-79
2021/08/05 09:36:35;;;;;;;34.47;31.17;;;26.80;59.60;;;;;;5112957;28;20028;-80
2021/08/05 09:39:12;;;;;;;28.15;25.52;;;26.90;59.20;;;;;;5084711;28;20035;-80
2021/08/05 09:42:02;;;;;;;24.42;22.23;;;27.70;59.10;;;;;;5101913;28;20028;-79
2021/08/05 09:44:44;;;;;;;23.40;21.40;;;28.80;57.00;;;;;;5113876;28;20447;-78
2021/08/05 09:47:17;;;;;;;26.70;24.33;;;29.90;53.60;;;;;;5098926;28;20131;-87
2021/08/05 09:49:46;;;;;;;24.85;22.70;;;30.40;51.20;;;;;;5076928;28;20044;-79
2021/08/05 09:52:12;;;;;;;24.08;21.65;;;30.40;49.40;;;;;;5100620;28;20020;-79
2021/08/05 09:54:51;;;;;;;24.38;22.30;;;30.30;47.40;;;;;;5091234;28;20104;-85
2021/08/05 09:57:23;;;;;;;23.23;21.02;;;30.40;49.30;;;;;;5110110;28;20020;-79
2021/08/05 09:59:55;;;;;;;20.67;18.70;;;30.70;47.50;;;;;;5108940;28;20036;-78
2021/08/05 10:02:21;;;;;;;27.50;25.17;;;30.80;49.20;;;;;;5104192;28;20069;-78
2021/08/05 10:04:48;;;;;;;20.80;18.98;;;31.00;47.90;;;;;;5108268;28;20119;-82
2021/08/05 10:07:15;;;;;;;21.23;19.40;;;30.90;49.20;;;;;;5109079;28;20027;-82
2021/08/05 10:09:42;;;;;;;17.52;15.98;;;31.10;47.50;;;;;;5090890;28;20020;-80
2021/08/05 10:12:24;;;;;;;16.33;14.93;;;31.30;48.20;;;;;;5106335;28;20080;-79
2021/08/05 10:14:51;;;;;;;16.08;14.65;;;31.70;46.50;;;;;;5107504;28;20055;-82
2021/08/05 10:17:18;;;;;;;15.18;13.68;;;31.80;45.60;;;;;;5104014;28;20425;-86
2021/08/05 10:19:46;;;;;;;20.55;18.75;;;31.90;44.80;;;;;;5110040;28;20031;-79
2021/08/05 10:22:14;;;;;;;22.02;19.88;;;31.60;44.30;;;;;;5104784;28;20044;-77
2021/08/05 10:24:43;;;;;;;22.67;20.63;;;31.50;45.00;;;;;;5091483;28;20178;-81
2021/08/05 10:27:13;;;;;;;17.92;16.33;;;31.30;45.30;;;;;;5111431;28;20118;-78
2021/08/05 10:29:40;;;;;;;18.15;16.58;;;31.10;46.60;;;;;;5108241;28;20111;-79
2021/08/05 10:32:08;;;;;;;15.45;14.05;;;31.10;46.40;;;;;;5113406;28;20015;-78
2021/08/05 10:34:37;;;;;;;13.50;12.23;;;31.30;46.70;;;;;;5111899;28;20158;-79
2021/08/05 10:37:04;;;;;;;14.43;13.07;;;31.80;44.90;;;;;;5105958;28;20035;-78
2021/08/05 10:39:31;;;;;;;14.60;13.40;;;32.10;43.70;;;;;;5094654;28;20039;-83
2021/08/05 10:42:05;;;;;;;14.98;13.77;;;31.80;43.60;;;;;;5112365;28;20027;-77
2021/08/05 10:44:31;;;;;;;14.18;12.98;;;32.00;44.20;;;;;;5097155;28;20239;-78
2021/08/05 10:46:59;;;;;;;17.65;16.10;;;32.10;43.50;;;;;;5093000;28;20035;-78
2021/08/05 10:49:26;;;;;;;11.88;10.88;;;31.80;41.20;;;;;;5101270;28;20036;-77
2021/08/05 10:51:51;;;;;;;20.55;18.73;;;31.00;41.60;;;;;;5092919;28;20043;-77
2021/08/05 10:54:52;;;;;;;18.30;16.73;;;30.40;43.40;;;;;;5110413;28;20066;-78
2021/08/05 10:57:24;;;;;;;19.27;17.52;;;29.90;44.30;;;;;;5114206;28;20019;-78
2021/08/05 11:00:19;;;;;;;17.73;16.17;;;29.10;46.80;;;;;;5111157;28;20103;-79
2021/08/05 11:02:54;;;;;;;23.90;21.88;;;28.60;49.50;;;;;;5100052;28;20043;-79
2021/08/05 11:05:22;;;;;;;25.60;23.17;;;28.40;49.70;;;;;;5111527;28;20039;-79
2021/08/05 11:07:52;;;;;;;20.90;19.02;;;28.00;50.90;;;;;;5111956;28;20020;-78
2021/08/05 11:10:25;;;;;;;26.10;23.67;;;27.70;52.00;;;;;;5111770;28;20050;-78
2021/08/05 11:13:09;;;;;;;26.27;23.85;;;27.40;52.20;;;;;;5111672;28;20028;-78
2021/08/05 11:15:35;;;;;;;25.02;22.73;;;27.00;53.20;;;;;;5107456;28;20051;-80
2021/08/05 11:18:15;;;;;;;25.98;23.35;;;26.70;53.80;;;;;;5112121;28;20027;-78
2021/08/05 11:21:04;;;;;;;23.02;20.92;;;26.40;54.20;;;;;;5111497;28;20501;-78
2021/08/05 11:23:35;;;;;;;19.90;18.08;;;26.40;55.90;;;;;;5088931;28;20060;-78
2021/08/05 11:26:04;;;;;;;22.20;20.30;;;26.50;54.30;;;;;;5106223;28;20062;-79
2021/08/05 11:28:43;;;;;;;15.02;13.73;;;27.00;54.30;;;;;;5109764;28;20083;-79
2021/08/05 11:31:11;;;;;;;16.00;14.60;;;27.50;52.00;;;;;;5108006;28;20110;-79
2021/08/05 11:33:36;;;;;;;13.00;11.80;;;28.20;48.50;;;;;;5104123;28;20027;-80
2021/08/05 11:39:02;;;;;;;14.77;13.38;;;29.50;46.70;;;;;;5107513;28;20031;-84
2021/08/05 11:41:43;;;;;;;17.13;15.52;;;30.10;46.50;;;;;;5107935;27;20028;-79
2021/08/05 11:44:25;;;;;;;15.75;14.23;;;30.30;44.70;;;;;;5103771;28;20040;-77
2021/08/05 11:47:06;;;;;;;11.23;10.23;;;30.50;44.90;;;;;;5101841;28;20015;-81
2021/08/05 11:49:39;;;;;;;8.98;8.15;;;30.60;45.10;;;;;;5106835;27;20057;-78
2021/08/05 11:52:14;;;;;;;10.32;9.43;;;31.20;44.60;;;;;;5102584;28;20039;-79
2021/08/05 11:54:43;;;;;;;9.40;8.50;;;31.50;41.90;;;;;;5103747;28;20031;-80
2021/08/05 11:57:13;;;;;;;10.52;9.73;;;31.50;42.40;;;;;;5102031;28;20038;-78
2021/08/05 11:59:41;;;;;;;12.90;11.70;;;31.30;43.30;;;;;;5101587;28;20032;-82
2021/08/05 12:02:16;;;;;;;13.98;12.77;;;31.20;43.40;;;;;;5104208;28;20031;-78
2021/08/05 12:04:43;;;;;;;13.80;12.60;;;31.30;43.50;;;;;;5103239;28;20035;-81
2021/08/05 12:07:20;;;;;;;11.65;10.65;;;31.00;43.30;;;;;;5084281;28;20031;-78
2021/08/05 12:10:09;;;;;;;8.25;7.50;;;31.00;42.40;;;;;;5102485;28;20024;-77
2021/08/05 12:12:52;;;;;;;5.95;5.32;;;30.40;41.00;;;;;;5103469;28;20422;-79
2021/08/05 12:15:25;;;;;;;6.90;6.18;;;29.80;41.30;;;;;;5103071;28;20019;-79
2021/08/05 12:17:51;;;;;;;;;;;29.30;42.60;;;;;;5106722;28;20047;-78
2021/08/05 12:20:21;;;;;;;9.85;8.45;;;29.30;42.60;;;;;;5101808;27;19943;-80
2021/08/05 12:22:52;;;;;;;7.95;7.15;;;29.00;43.80;;;;;;5101742;28;20031;-82
2021/08/05 12:25:46;;;;;;;10.10;9.30;;;28.60;43.90;;;;;;5103366;28;20035;-81
2021/08/05 12:28:15;;;;;;;16.02;14.68;;;28.10;44.90;;;;;;5107584;28;20038;-77
2021/08/05 12:30:47;;;;;;;11.75;10.68;;;27.70;46.20;;;;;;5103275;28;20038;-80
2021/08/05 12:33:36;;;;;;;11.80;10.77;;;27.30;47.40;;;;;;5100728;28;20353;-78
2021/08/05 12:36:10;;;;;;;9.70;8.60;;;27.20;47.80;;;;;;5099384;28;20118;-78
2021/08/05 12:38:50;;;;;;;10.07;9.23;;;27.30;49.00;;;;;;5102274;28;20081;-81